Decoded Metar for KCCY (CHARLES CITY in IA, USA) (IATA:CCY) | Meteo·Mobile Aviation Weather
aviador You're here:

KCCY Decoded Metar

CHARLES CITY in IA, USA
Report Time2018-08-22 05:35:00
UTC Time2018-08-22 05:37:50
Flight Rules vfr VFR
Wind330° at 04 kt
W.Decomp.*RWY 30: 3.6 kt HW 1.8 kt RCW
RWY 36: 3.4 kt HW 2.2 kt LCW
RWY 04: 1.2 kt HW 3.8 kt LCW
W.Rank330° ranks 10
Current wind is below 330° avg. (10.2)
Visibility9999 m
Phenomena:N/A
Clouds:N/A
Expected CloudBase > 400 ft AGL from Temp-Dew spread
CeilingNone
Temp13°C (ISA 0)
Dew Point12°C (94% RH)
AAT12.2°C
QNH1022 hPa
Density Alt1,043 ft
Elevation1,125 ft
Report Wrong Elevation
Raw Report
KCCY 220535Z AUTO 33004KT 10SM CLR 13/12 A3019 RMK AO2=

Extra information for KCCY:More info

Metar Taf Metar & Taf Last 4 Metars F.Rules Stats Wind Profile Meteogram Temp Stats Airport Information Weather charts Add Link Nearby VenuesMetar ALERT Operation Metar Decoded Social comments

AIRNAV info for KCCY